Time;durP1;ratioP1;P1;durP2;ratioP2;P2;SDS_P1;SDS_P2;PMS_P1;PMS_P2;Temp;Humidity;BMP_temperature;BMP_pressure;BME280_temperature;BME280_humidity;BME280_pressure;Samples;Min_cycle;Max_cycle;Signal;HPM_P1;HPM_P2
2021/05/08 00:01:50;;;;;;;;;2.75;2.75;;;;;18.88;16.70;98954.84;4996313;28;8803;-47
2021/05/08 00:04:15;;;;;;;;;3.00;3.00;;;;;18.91;16.44;98956.91;4998433;28;9628;-47
2021/05/08 00:06:40;;;;;;;;;2.00;2.00;;;;;18.94;16.42;98951.91;4985232;28;12276;-48
2021/05/08 00:09:07;;;;;;;;;2.00;2.00;;;;;18.93;16.30;98959.31;4995063;28;8833;-48
2021/05/08 00:11:36;;;;;;;;;2.00;2.00;;;;;19.00;16.61;98958.75;4998014;28;8800;-48
2021/05/08 00:14:02;;;;;;;;;3.40;3.00;;;;;19.16;16.86;98958.88;5000455;28;9521;-49
2021/05/08 00:16:27;;;;;;;;;2.00;2.00;;;;;19.18;17.90;98960.13;5003783;28;8993;-46
2021/05/08 00:18:53;;;;;;;;;2.25;2.25;;;;;19.12;18.60;98964.22;5002151;28;8847;-46
2021/05/08 00:21:20;;;;;;;;;2.00;2.00;;;;;19.06;19.19;98962.84;5003313;28;8800;-47
2021/05/08 00:23:45;;;;;;;;;2.00;2.00;;;;;18.97;19.70;98964.91;5001037;28;8781;-52
2021/05/08 00:26:11;;;;;;;;;3.00;3.00;;;;;18.97;19.74;98964.91;4998502;28;8792;-48
2021/05/08 00:28:36;;;;;;;;;2.00;2.00;;;;;18.92;20.13;98968.63;5003513;28;8789;-47
2021/05/08 00:31:01;;;;;;;;;3.00;3.00;;;;;18.87;20.53;98975.13;5003823;28;9587;-48
2021/05/08 00:33:27;;;;;;;;;2.00;2.00;;;;;18.83;20.80;98978.88;4994764;28;8820;-48
2021/05/08 00:35:52;;;;;;;;;2.25;2.25;;;;;18.81;20.51;98979.19;4982036;28;8797;-47
2021/05/08 00:38:17;;;;;;;;;2.75;2.75;;;;;18.81;19.92;98976.44;4980806;28;8801;-45
2021/05/08 00:40:43;;;;;;;;;2.00;2.00;;;;;18.80;19.32;98983.03;4989078;28;9520;-48
2021/05/08 00:43:08;;;;;;;;;3.00;3.00;;;;;18.85;18.79;98980.13;5001429;28;9626;-47
2021/05/08 00:45:34;;;;;;;;;3.00;3.00;;;;;18.88;18.71;98978.66;5005258;28;8832;-47
2021/05/08 00:48:05;;;;;;;;;2.00;2.00;;;;;18.82;18.30;98986.28;4982274;28;8996;-48
2021/05/08 00:50:32;;;;;;;;;3.00;3.00;;;;;18.80;18.02;98980.31;4973622;28;8799;-45
2021/05/08 00:52:58;;;;;;;;;2.80;2.80;;;;;18.77;17.88;98985.66;4983664;28;8791;-50
2021/05/08 00:55:24;;;;;;;;;3.00;3.00;;;;;18.74;17.78;98977.00;4995367;28;8795;-49
2021/05/08 00:57:49;;;;;;;;;2.00;2.00;;;;;18.79;17.79;98980.69;5000441;28;8806;-50
2021/05/08 01:00:15;;;;;;;;;3.00;3.00;;;;;18.78;17.71;98979.06;4998377;28;8827;-50
2021/05/08 01:02:40;;;;;;;;;3.00;3.00;;;;;18.78;17.39;98974.38;4996867;28;8808;-47
2021/05/08 01:05:07;;;;;;;;;3.00;3.00;;;;;18.76;17.52;98981.34;5002957;28;11506;-48
2021/05/08 01:07:37;;;;;;;;;2.00;2.00;;;;;18.74;17.45;98978.94;4996468;28;9945;-45
2021/05/08 01:10:04;;;;;;;;;2.00;2.00;;;;;18.75;17.20;98986.03;4981958;28;8827;-47
2021/05/08 01:12:29;;;;;;;;;3.60;3.60;;;;;18.78;17.22;98985.31;4989980;28;8803;-49
2021/05/08 01:14:54;;;;;;;;;2.50;2.50;;;;;18.76;17.13;98979.41;4983066;28;8809;-49
2021/05/08 01:17:20;;;;;;;;;3.00;3.00;;;;;18.77;16.97;98980.19;4983107;28;8830;-49
2021/05/08 01:19:46;;;;;;;;;2.20;2.20;;;;;18.79;17.10;98981.47;4984434;28;8793;-50
2021/05/08 01:22:11;;;;;;;;;2.00;2.00;;;;;18.80;16.71;98983.03;5007674;28;8808;-50
2021/05/08 01:24:37;;;;;;;;;2.00;2.00;;;;;18.80;16.77;98983.03;5003894;28;8942;-50
2021/05/08 01:27:02;;;;;;;;;3.00;3.00;;;;;18.82;16.80;98980.00;4989601;28;8795;-51
2021/05/08 01:29:27;;;;;;;;;2.25;2.25;;;;;18.82;16.84;98980.81;4999046;28;9567;-49
2021/05/08 01:31:53;;;;;;;;;2.00;2.00;;;;;18.82;16.66;98986.28;5003237;28;8784;-50
2021/05/08 01:34:18;;;;;;;;;3.00;2.25;;;;;18.82;16.83;98991.75;4996499;28;8799;-51
2021/05/08 01:36:43;;;;;;;;;2.25;2.25;;;;;18.83;16.65;98993.34;5006843;28;8822;-47
2021/05/08 01:39:09;;;;;;;;;2.00;2.00;;;;;18.84;16.65;98991.41;4996130;28;8941;-49
2021/05/08 01:41:34;;;;;;;;;2.75;2.75;;;;;18.86;16.61;98991.88;5001549;28;8769;-50
2021/05/08 01:44:01;;;;;;;;;2.00;2.00;;;;;18.87;16.61;98999.72;5002032;28;8800;-49
2021/05/08 01:46:26;;;;;;;;;2.00;2.00;;;;;18.87;16.64;98997.00;5004051;28;8765;-51
2021/05/08 01:48:52;;;;;;;;;2.50;2.50;;;;;18.87;16.57;98997.00;4995848;28;8802;-50
2021/05/08 01:51:17;;;;;;;;;2.00;2.00;;;;;18.89;16.56;98997.47;4984905;28;8786;-51
2021/05/08 01:53:42;;;;;;;;;2.00;2.00;;;;;18.90;16.33;99004.50;4996134;28;9809;-49
2021/05/08 01:56:08;;;;;;;;;2.50;2.00;;;;;18.88;16.64;99006.78;4995936;28;8792;-48
2021/05/08 01:58:37;;;;;;;;;2.25;2.25;;;;;18.92;16.29;99004.16;5006884;28;9162;-48
2021/05/08 02:01:04;;;;;;;;;2.00;2.00;;;;;18.90;16.34;99003.72;4996513;28;8808;-48
2021/05/08 02:03:29;;;;;;;;;2.00;2.00;;;;;18.90;16.46;99004.50;4997329;28;8876;-47
2021/05/08 02:05:54;;;;;;;;;2.00;2.00;;;;;18.90;16.34;99004.50;5005539;28;8934;-47
2021/05/08 02:08:20;;;;;;;;;2.00;2.00;;;;;18.93;16.26;99005.78;5004977;28;8812;-47
2021/05/08 02:10:46;;;;;;;;;2.50;2.50;;;;;18.93;16.16;99003.03;4995108;28;8880;-47
2021/05/08 02:13:12;;;;;;;;;3.00;3.00;;;;;18.94;16.33;99009.28;5005519;28;8821;-47
2021/05/08 02:15:39;;;;;;;;;1.40;1.40;;;;;18.95;16.29;99005.44;5004701;28;8878;-48
2021/05/08 02:18:06;;;;;;;;;2.00;2.00;;;;;18.96;16.13;99007.00;4999975;28;8905;-45
2021/05/08 02:20:35;;;;;;;;;2.00;2.00;;;;;18.98;16.10;99004.72;4999695;28;8807;-48
2021/05/08 02:23:04;;;;;;;;;2.40;2.00;;;;;18.95;16.15;99000.75;4991810;28;8783;-47
2021/05/08 02:25:29;;;;;;;;;2.40;2.00;;;;;18.96;16.04;98999.63;4982906;28;8784;-47
2021/05/08 02:27:55;;;;;;;;;2.80;2.80;;;;;18.97;15.99;99003.94;4987681;28;8803;-48
2021/05/08 02:30:23;;;;;;;;;2.00;2.00;;;;;18.98;15.78;99011.03;5004252;28;8837;-45
2021/05/08 02:32:49;;;;;;;;;2.00;2.00;;;;;18.98;16.07;99007.47;5007796;28;8768;-46
2021/05/08 02:35:16;;;;;;;;;4.00;3.00;;;;;18.99;15.95;99009.06;5003279;28;8874;-49
2021/05/08 02:37:41;;;;;;;;;2.60;2.60;;;;;18.99;16.06;99009.06;4997589;28;8813;-46
2021/05/08 02:40:16;;;;;;;;;2.00;2.00;;;;;19.02;16.11;99008.41;4984062;28;8835;-47
2021/05/08 02:42:42;;;;;;;;;2.60;2.60;;;;;19.01;15.90;99009.53;5001887;28;8815;-46
2021/05/08 02:45:09;;;;;;;;;1.60;1.60;;;;;19.03;16.02;99007.25;4983377;28;8783;-48
2021/05/08 02:47:36;;;;;;;;;2.00;2.00;;;;;19.03;16.00;99009.97;4998176;28;8815;-48
2021/05/08 02:50:02;;;;;;;;;2.00;2.00;;;;;19.04;15.92;99006.13;4981231;28;8804;-46
2021/05/08 02:52:27;;;;;;;;;2.50;2.50;;;;;19.04;15.81;99008.84;4986008;28;8792;-46
2021/05/08 02:54:53;;;;;;;;;2.00;2.00;;;;;19.03;16.11;99007.25;5004707;28;8913;-48
2021/05/08 02:57:18;;;;;;;;;3.00;3.00;;;;;19.04;15.89;99009.66;4983330;28;8827;-45
2021/05/08 02:59:43;;;;;;;;;2.00;2.00;;;;;19.05;15.91;99024.09;4983215;28;8833;-47
2021/05/08 03:02:09;;;;;;;;;2.50;2.50;;;;;19.07;16.18;99016.38;4982368;28;8791;-46
2021/05/08 03:04:35;;;;;;;;;2.00;2.00;;;;;19.07;15.95;99014.44;4983652;28;8925;-47
2021/05/08 03:07:04;;;;;;;;;2.25;2.00;;;;;19.10;16.05;99013.78;4985628;28;9610;-47
2021/05/08 03:09:30;;;;;;;;;2.80;2.80;;;;;19.11;16.16;99014.56;4978229;28;9575;-47
2021/05/08 03:11:57;;;;;;;;;3.00;2.00;;;;;19.11;16.09;99017.28;4996316;28;8795;-47
2021/05/08 03:14:22;;;;;;;;;2.00;2.00;;;;;19.10;15.97;99021.16;4992703;28;8791;-47
2021/05/08 03:16:47;;;;;;;;;3.00;3.00;;;;;19.11;16.00;99017.28;4987761;28;8791;-47
2021/05/08 03:19:13;;;;;;;;;2.00;2.00;;;;;19.14;15.94;99024.81;4998602;28;9614;-48
2021/05/08 03:21:38;;;;;;;;;2.00;2.00;;;;;19.14;15.94;99032.19;4982166;28;8918;-45
2021/05/08 03:24:04;;;;;;;;;2.00;2.00;;;;;19.15;15.80;99031.06;4979022;28;9519;-46
2021/05/08 03:26:31;;;;;;;;;2.80;2.80;;;;;19.18;15.89;99028.47;4992236;28;8792;-48
2021/05/08 03:28:57;;;;;;;;;2.00;2.00;;;;;19.21;15.80;99025.06;5000301;28;8854;-48
2021/05/08 03:31:22;;;;;;;;;2.60;2.60;;;;;19.22;15.69;99026.63;4998893;28;8818;-47
2021/05/08 03:33:47;;;;;;;;;2.25;2.25;;;;;19.20;15.65;99028.91;5001859;28;8835;-48
2021/05/08 03:36:13;;;;;;;;;2.75;2.75;;;;;19.21;15.70;99036.00;5002822;28;8808;-45
2021/05/08 03:38:38;;;;;;;;;2.00;2.00;;;;;19.25;15.56;99030.63;4999082;28;9002;-48
2021/05/08 03:41:04;;;;;;;;;2.00;2.00;;;;;19.26;15.83;99035.75;4993539;28;8839;-46
2021/05/08 03:43:30;;;;;;;;;2.00;2.00;;;;;19.25;15.62;99038.84;4985516;28;9497;-47
2021/05/08 03:45:56;;;;;;;;;3.00;3.00;;;;;19.26;15.60;99040.41;5003190;28;8776;-46
2021/05/08 03:48:22;;;;;;;;;2.60;2.60;;;;;19.24;15.69;99043.50;4983836;28;9495;-47
2021/05/08 03:50:48;;;;;;;;;2.00;2.00;;;;;19.22;15.54;99042.25;4996012;28;8799;-47
2021/05/08 03:53:13;;;;;;;;;2.00;2.00;;;;;19.25;15.89;99047.03;4990369;28;9562;-48
2021/05/08 03:55:40;;;;;;;;;2.00;2.00;;;;;19.24;15.64;99051.72;4977796;28;8791;-48
2021/05/08 03:58:05;;;;;;;;;2.00;2.00;;;;;19.27;15.46;99050.22;4979741;28;11533;-47
2021/05/08 04:00:30;;;;;;;;;2.00;2.00;;;;;19.27;15.72;99051.00;4998255;28;8852;-47
2021/05/08 04:02:56;;;;;;;;;2.50;2.50;;;;;19.27;15.67;99053.75;5003857;28;8889;-46
2021/05/08 04:05:21;;;;;;;;;3.00;3.00;;;;;19.25;15.86;99055.25;4989023;28;8810;-47
2021/05/08 04:07:46;;;;;;;;;2.00;2.00;;;;;19.25;15.65;99053.28;4977785;28;11574;-48
2021/05/08 04:10:12;;;;;;;;;2.00;2.00;;;;;19.24;15.55;99057.19;4982313;28;8921;-45
2021/05/08 04:12:37;;;;;;;;;3.00;2.50;;;;;19.26;15.65;99054.91;4983272;28;8874;-46
2021/05/08 04:15:03;;;;;;;;;2.00;2.00;;;;;19.28;15.68;99060.03;4999878;28;8816;-48
2021/05/08 04:17:28;;;;;;;;;2.25;2.25;;;;;19.27;15.52;99064.69;5000792;28;8807;-48
2021/05/08 04:19:54;;;;;;;;;3.00;3.00;;;;;19.28;15.50;99060.03;4993006;28;9760;-46
2021/05/08 04:22:19;;;;;;;;;2.75;2.75;;;;;19.28;15.65;99062.78;4982700;28;8802;-47
2021/05/08 04:24:44;;;;;;;;;2.25;2.25;;;;;19.29;15.63;99062.44;4986960;28;8913;-47
2021/05/08 04:27:10;;;;;;;;;2.00;2.00;;;;;19.31;15.50;99070.28;4996893;28;8796;-47
2021/05/08 04:29:35;;;;;;;;;2.00;2.00;;;;;19.30;15.41;99064.00;5005465;28;8843;-48
2021/05/08 04:32:00;;;;;;;;;2.25;2.25;;;;;19.32;15.32;99058.19;4993515;28;8799;-45
2021/05/08 04:34:25;;;;;;;;;3.00;3.00;;;;;19.32;15.37;99060.94;4983878;28;8986;-47
2021/05/08 04:36:51;;;;;;;;;2.25;2.25;;;;;19.36;15.36;99064.56;5003207;28;8822;-46
2021/05/08 04:39:16;;;;;;;;;2.75;2.75;;;;;19.39;15.32;99065.84;4984192;28;8836;-48
2021/05/08 04:41:41;;;;;;;;;1.00;1.00;;;;;19.50;15.50;99053.31;4980305;28;8866;-46
2021/05/08 04:44:07;;;;;;;;;3.00;3.00;;;;;19.64;16.21;99053.75;4984257;28;8775;-47
2021/05/08 04:46:32;;;;;;;;;2.00;2.00;;;;;19.57;16.55;99061.75;4997940;28;8767;-47
2021/05/08 04:48:57;;;;;;;;;2.00;2.00;;;;;19.51;17.51;99060.38;4983220;28;8881;-49
2021/05/08 04:51:23;;;;;;;;;2.25;2.00;;;;;19.46;18.16;99064.13;4998629;28;8819;-48
2021/05/08 04:53:49;;;;;;;;;2.75;2.75;;;;;19.41;18.54;99066.31;5001091;28;8800;-48
2021/05/08 04:56:15;;;;;;;;;3.50;3.50;;;;;19.34;18.89;99071.53;5001333;28;8800;-45
2021/05/08 04:58:41;;;;;;;;;2.80;2.80;;;;;19.29;19.04;99072.56;5000985;28;12451;-48
2021/05/08 05:01:06;;;;;;;;;2.00;2.00;;;;;19.25;19.15;99083.38;5001203;28;8831;-46
2021/05/08 05:03:31;;;;;;;;;2.75;2.75;;;;;19.19;19.41;99087.47;5006003;28;8842;-47
2021/05/08 05:05:57;;;;;;;;;3.00;3.00;;;;;19.16;19.67;99082.69;5000933;28;8815;-48
2021/05/08 05:08:22;;;;;;;;;3.00;3.00;;;;;19.22;18.82;99080.53;4999579;28;8815;-46
2021/05/08 05:10:51;;;;;;;;;2.00;2.00;;;;;19.28;18.29;99079.97;4988341;28;8771;-48
2021/05/08 05:13:17;;;;;;;;;2.00;2.00;;;;;19.34;17.52;99082.47;5001913;28;8793;-47
2021/05/08 05:15:42;;;;;;;;;2.00;2.00;;;;;19.30;17.63;99083.16;4983999;28;8834;-47
2021/05/08 05:18:07;;;;;;;;;3.00;2.25;;;;;19.29;17.09;99092.50;4976938;28;8814;-48
2021/05/08 05:20:33;;;;;;;;;2.25;2.25;;;;;19.21;17.13;99090.66;4995673;28;8874;-47
2021/05/08 05:22:58;;;;;;;;;2.00;2.00;;;;;19.18;16.96;99091.34;4989157;28;8879;-47
2021/05/08 05:25:24;;;;;;;;;3.00;3.00;;;;;19.18;16.69;99091.34;4982556;28;8897;-47
2021/05/08 05:27:49;;;;;;;;;2.00;2.00;;;;;19.17;16.69;99084.28;4980904;28;8809;-47
2021/05/08 05:30:15;;;;;;;;;2.00;2.00;;;;;19.19;16.63;99092.94;4982070;28;8799;-47
2021/05/08 05:32:40;;;;;;;;;2.00;2.00;;;;;19.20;16.50;99094.53;4981401;28;9559;-47
2021/05/08 05:35:06;;;;;;;;;2.00;2.00;;;;;19.20;16.64;99093.72;4978952;28;12323;-48
2021/05/08 05:37:31;;;;;;;;;1.60;1.60;;;;;19.19;16.31;99092.94;4980205;28;8771;-46
2021/05/08 05:39:57;;;;;;;;;2.25;2.25;;;;;19.18;16.24;99099.53;4980893;28;8846;-45
2021/05/08 05:42:22;;;;;;;;;2.00;2.00;;;;;19.20;16.43;99100.00;4997545;28;8835;-45
2021/05/08 05:44:48;;;;;;;;;2.25;2.25;;;;;19.18;16.16;99102.28;5016681;28;9623;-47
2021/05/08 05:47:22;;;;;;;;;2.00;2.00;;;;;19.22;16.27;99099.66;4998951;28;8808;-48
2021/05/08 05:49:52;;;;;;;;;2.40;2.40;;;;;19.21;16.16;99100.81;4997576;28;8784;-47
2021/05/08 05:52:19;;;;;;;;;2.00;2.00;;;;;19.22;16.09;99097.72;5000154;28;8823;-50
2021/05/08 05:54:46;;;;;;;;;2.80;2.20;;;;;19.20;16.15;99099.19;5000734;28;8820;-49
2021/05/08 05:57:12;;;;;;;;;2.60;2.60;;;;;19.19;15.95;99092.13;4983688;28;8823;-48
2021/05/08 05:59:37;;;;;;;;;2.00;2.00;;;;;19.24;16.15;99100.94;4997288;28;8812;-50
2021/05/08 06:02:05;;;;;;;;;4.00;3.00;;;;;19.24;16.12;99097.38;5000178;28;8804;-50
2021/05/08 06:04:31;;;;;;;;;2.00;2.00;;;;;19.26;15.70;99095.91;5005630;28;8753;-50
2021/05/08 06:06:56;;;;;;;;;2.80;2.80;;;;;19.24;16.09;99103.66;5007740;28;8798;-48
2021/05/08 06:09:22;;;;;;;;;3.00;3.00;;;;;19.25;16.00;99105.25;5003814;28;8796;-50
2021/05/08 06:11:47;;;;;;;;;2.75;2.25;;;;;19.25;15.89;99107.97;4998364;28;8818;-51
2021/05/08 06:14:12;;;;;;;;;2.00;2.00;;;;;19.25;15.82;99118.91;5005589;28;8752;-50
2021/05/08 06:16:37;;;;;;;;;2.50;2.00;;;;;19.25;15.65;99107.97;4999161;28;8795;-47
2021/05/08 06:19:03;;;;;;;;;2.00;2.00;;;;;19.27;15.83;99110.38;4973679;28;8854;-48
2021/05/08 06:21:28;;;;;;;;;2.00;2.00;;;;;19.28;15.63;99112.00;4984523;28;8909;-48
2021/05/08 06:23:53;;;;;;;;;2.00;2.00;;;;;19.27;16.14;99105.69;4996941;28;8800;-48
2021/05/08 06:26:19;;;;;;;;;2.00;2.00;;;;;19.28;15.79;99103.78;4992756;28;8889;-46
2021/05/08 06:28:44;;;;;;;;;2.50;2.50;;;;;19.27;15.62;99104.91;4988898;28;8812;-48
2021/05/08 06:31:09;;;;;;;;;3.00;3.00;;;;;19.26;15.98;99117.78;5004271;28;8918;-46
2021/05/08 06:33:35;;;;;;;;;2.75;2.75;;;;;19.29;15.68;99116.31;4978891;28;8816;-48
2021/05/08 06:36:00;;;;;;;;;3.75;3.00;;;;;19.28;15.60;99118.25;4999691;28;8800;-48
2021/05/08 06:38:25;;;;;;;;;2.75;2.75;;;;;19.30;15.79;99118.69;4991878;28;8785;-48
2021/05/08 06:40:51;;;;;;;;;2.00;2.00;;;;;19.31;15.81;99122.22;4992950;28;8792;-46
2021/05/08 06:43:16;;;;;;;;;2.00;2.00;;;;;19.34;15.59;99121.56;5004705;28;8837;-45
2021/05/08 06:45:41;;;;;;;;;1.75;1.75;;;;;19.39;15.47;99123.28;5009125;28;9528;-46
2021/05/08 06:48:07;;;;;;;;;1.75;1.75;;;;;19.38;15.51;99121.66;5002799;28;8851;-48
2021/05/08 06:50:33;;;;;;;;;2.20;2.20;;;;;19.36;15.50;99123.94;5003191;28;8796;-48
2021/05/08 06:52:58;;;;;;;;;2.20;2.20;;;;;19.36;15.34;99124.75;5004090;28;8776;-50
2021/05/08 06:55:24;;;;;;;;;2.50;2.50;;;;;19.37;15.63;99128.28;4999725;28;8782;-50
2021/05/08 06:57:50;;;;;;;;;2.00;2.00;;;;;19.39;15.55;99128.75;4983506;28;8810;-50
2021/05/08 07:00:18;;;;;;;;;1.00;1.00;;;;;19.39;15.35;99126.00;4981835;28;8822;-49
2021/05/08 07:02:44;;;;;;;;;2.00;2.00;;;;;19.41;15.33;99137.41;4981799;28;8783;-48
2021/05/08 07:05:10;;;;;;;;;2.50;2.50;;;;;19.40;15.46;99125.69;4992437;28;8802;-50
2021/05/08 07:07:35;;;;;;;;;1.00;1.00;;;;;19.41;15.57;99131.94;4998946;28;10072;-50
2021/05/08 07:10:03;;;;;;;;;2.00;2.00;;;;;19.43;15.28;99124.19;5000408;28;8805;-43
2021/05/08 07:12:28;;;;;;;;;2.00;2.00;;;;;19.42;15.28;99122.59;5005845;28;8800;-47
2021/05/08 07:14:53;;;;;;;;;2.00;2.00;;;;;19.44;15.32;99129.31;5003126;28;8800;-46
2021/05/08 07:17:19;;;;;;;;;2.00;2.00;;;;;19.45;15.38;99128.19;5002376;28;8788;-48
2021/05/08 07:19:44;;;;;;;;;2.00;2.00;;;;;19.47;15.38;99127.84;5003553;28;8836;-47
2021/05/08 07:22:09;;;;;;;;;2.25;2.25;;;;;19.47;15.33;99125.91;5002794;28;8882;-46
2021/05/08 07:24:35;;;;;;;;;2.00;2.00;;;;;19.47;15.28;99128.66;5001196;28;8931;-47
2021/05/08 07:27:00;;;;;;;;;2.00;2.00;;;;;19.47;15.20;99130.56;4986322;28;8801;-45
2021/05/08 07:29:25;;;;;;;;;2.75;2.75;;;;;19.48;15.17;99126.72;4981767;28;8814;-45
2021/05/08 07:31:51;;;;;;;;;2.00;2.00;;;;;19.49;15.14;99128.31;4983318;28;8779;-47
2021/05/08 07:34:16;;;;;;;;;2.00;2.00;;;;;19.49;15.04;99134.56;4979183;28;8925;-46
2021/05/08 07:36:42;;;;;;;;;2.00;2.00;;;;;19.49;15.26;99133.78;4984133;28;8835;-45
2021/05/08 07:39:08;;;;;;;;;2.00;2.00;;;;;19.49;15.28;99139.25;4982498;28;9661;-47
2021/05/08 07:41:33;;;;;;;;;2.00;2.00;;;;;19.52;15.14;99132.28;4982147;28;8799;-47
2021/05/08 07:43:58;;;;;;;;;2.00;2.00;;;;;19.54;15.14;99135.47;4992413;28;8934;-48
2021/05/08 07:46:24;;;;;;;;;2.00;2.00;;;;;19.53;15.26;99134.69;5003546;28;8764;-48
2021/05/08 07:48:49;;;;;;;;;2.75;2.75;;;;;19.54;14.97;99130.81;4998795;28;8877;-46
2021/05/08 07:51:15;;;;;;;;;1.75;1.75;;;;;19.52;15.30;99135.03;4998091;28;8971;-48
2021/05/08 07:53:40;;;;;;;;;2.75;2.75;;;;;19.54;15.10;99136.31;5006291;28;8814;-48
2021/05/08 07:56:05;;;;;;;;;2.00;2.00;;;;;19.56;14.91;99135.94;5002707;28;8827;-46
2021/05/08 07:58:31;;;;;;;;;3.00;2.50;;;;;19.57;15.10;99137.53;5001931;28;8962;-46
2021/05/08 08:00:56;;;;;;;;;2.25;2.25;;;;;19.58;14.92;99139.16;4993083;28;8824;-46
2021/05/08 08:03:22;;;;;;;;;2.00;2.00;;;;;19.54;15.18;99139.03;4977290;28;8811;-48
2021/05/08 08:05:47;;;;;;;;;2.75;2.75;;;;;19.57;14.85;99141.06;4981710;28;8834;-48
2021/05/08 08:08:12;;;;;;;;;2.00;2.00;;;;;19.56;15.04;99142.22;4993575;28;8822;-47
2021/05/08 08:10:38;;;;;;;;;2.00;2.00;;;;;19.59;15.05;99147.00;4996574;28;8810;-46
2021/05/08 08:13:03;;;;;;;;;2.00;2.00;;;;;19.60;14.83;99145.06;4976898;28;8881;-47
2021/05/08 08:15:30;;;;;;;;;2.25;2.00;;;;;19.59;14.87;99152.47;4977880;28;8924;-46
2021/05/08 08:17:55;;;;;;;;;2.00;2.00;;;;;19.62;14.81;99149.06;4997078;28;8828;-46
2021/05/08 08:20:21;;;;;;;;;2.00;2.00;;;;;19.62;14.82;99146.31;4993489;28;8852;-47
2021/05/08 08:22:46;;;;;;;;;2.00;2.00;;;;;19.63;14.87;99149.84;4997796;28;9559;-45
2021/05/08 08:25:13;;;;;;;;;1.25;1.25;;;;;19.62;14.81;99160.00;4983043;28;9601;-45
2021/05/08 08:27:40;;;;;;;;;2.80;2.80;;;;;19.62;14.97;99153.75;4996471;28;8969;-45
2021/05/08 08:30:08;;;;;;;;;2.00;2.00;;;;;19.63;14.91;99155.31;4998985;28;8850;-48
2021/05/08 08:32:34;;;;;;;;;2.00;2.00;;;;;19.65;14.76;99158.53;5001055;28;8824;-45
2021/05/08 08:34:59;;;;;;;;;2.00;2.00;;;;;19.62;14.77;99151.78;5000370;28;8835;-47
2021/05/08 08:37:24;;;;;;;;;1.75;1.75;;;;;19.65;14.77;99159.31;5002512;28;8823;-45
2021/05/08 08:39:50;;;;;;;;;2.50;2.00;;;;;19.65;14.87;99153.84;5002846;28;8868;-45
2021/05/08 08:42:15;;;;;;;;;1.00;1.00;;;;;19.67;14.88;99156.25;5001442;28;8788;-46
2021/05/08 08:44:41;;;;;;;;;1.40;1.40;;;;;19.66;14.80;99144.53;5001421;28;8894;-47
2021/05/08 08:49:52;;;;;;;;;2.40;2.40;;;;;19.68;14.80;99139.50;5001210;28;8761;-45
2021/05/08 08:52:18;;;;;;;;;1.80;1.80;;;;;19.69;14.73;99143.03;4990005;28;8877;-47
2021/05/08 08:54:43;;;;;;;;;2.00;2.00;;;;;19.73;14.74;99137.66;4998309;28;8827;-48
2021/05/08 08:57:11;;;;;;;;;1.00;1.00;;;;;19.71;14.68;99140.75;4982271;28;8798;-46
2021/05/08 08:59:37;;;;;;;;;2.00;2.00;;;;;19.73;14.70;99138.47;4994720;28;8896;-47
2021/05/08 09:02:03;;;;;;;;;2.00;2.00;;;;;19.71;14.58;99132.53;5001074;28;8821;-45
2021/05/08 09:04:28;;;;;;;;;1.00;1.00;;;;;19.73;14.53;99134.94;4997590;28;8790;-46
2021/05/08 09:06:54;;;;;;;;;1.50;1.50;;;;;19.78;14.43;99137.47;4981696;28;8868;-48
2021/05/08 09:09:19;;;;;;;;;1.50;1.50;;;;;19.90;14.18;99132.00;5000668;28;8800;-46
2021/05/08 09:11:48;;;;;;;;;2.00;2.00;;;;;20.11;14.39;99136.56;5000915;28;8816;-45
2021/05/08 09:14:24;;;;;;;;;2.00;2.00;;;;;20.10;15.02;99133.00;4991394;28;8771;-45
2021/05/08 09:17:11;;;;;;;;;1.80;1.80;;;;;20.02;16.08;99131.19;4980440;28;8819;-45
2021/05/08 09:19:37;;;;;;;;;1.40;1.40;;;;;19.93;16.76;99127.75;4986308;28;8784;-45
2021/05/08 09:22:26;;;;;;;;;1.75;1.75;;;;;19.86;17.43;99129.16;5000138;28;8831;-45
2021/05/08 09:25:08;;;;;;;;;1.00;1.00;;;;;19.78;17.48;99129.25;5001753;28;8785;-49
2021/05/08 09:27:34;;;;;;;;;2.00;2.00;;;;;19.70;18.16;99133.69;4999629;28;8798;-47
2021/05/08 09:30:14;;;;;;;;;1.00;1.00;;;;;19.63;18.35;99120.56;5001308;28;9353;-47
2021/05/08 09:32:44;;;;;;;;;2.00;2.00;;;;;19.55;18.25;99116.00;4988115;28;8909;-47
2021/05/08 09:35:17;;;;;;;;;1.80;1.80;;;;;19.53;18.66;99118.28;4984434;28;9649;-47
2021/05/08 09:37:43;;;;;;;;;1.00;1.00;;;;;19.62;17.56;99112.69;4990864;28;8815;-47
2021/05/08 09:40:13;;;;;;;;;1.25;1.25;;;;;19.73;17.21;99105.63;5003953;28;8800;-47
2021/05/08 09:42:44;;;;;;;;;1.00;1.00;;;;;19.75;16.55;99110.78;4985056;28;8832;-48
2021/05/08 09:45:11;;;;;;;;;1.00;1.00;;;;;19.78;16.38;99110.09;4981237;28;8803;-46
2021/05/08 09:47:36;;;;;;;;;2.00;2.00;;;;;19.74;16.09;99104.53;4983444;28;8837;-48
2021/05/08 09:50:02;;;;;;;;;1.00;1.00;;;;;19.72;16.07;99114.16;4993977;28;8815;-48
2021/05/08 09:52:48;;;;;;;;;1.00;1.00;;;;;19.71;15.77;99118.06;5002493;28;8793;-48
2021/05/08 09:55:15;;;;;;;;;1.00;1.00;;;;;19.72;15.66;99108.69;5003483;28;8804;-46
2021/05/08 09:57:53;;;;;;;;;1.00;1.00;;;;;19.65;15.70;99110.06;5004553;28;8804;-48
2021/05/08 10:00:54;;;;;;;;;2.00;2.00;;;;;19.78;15.39;99118.31;5003257;28;8816;-48
2021/05/08 10:03:21;;;;;;;;;2.00;1.00;;;;;19.76;15.32;99110.44;4985681;28;8816;-48
2021/05/08 10:06:09;;;;;;;;;1.00;1.00;;;;;19.72;15.36;99120.47;5002246;28;8815;-47
2021/05/08 10:08:34;;;;;;;;;1.00;1.00;;;;;19.75;15.20;99116.25;5005761;28;8808;-46
2021/05/08 10:11:02;;;;;;;;;1.00;1.00;;;;;19.71;15.28;99113.38;5001980;28;8772;-45
2021/05/08 10:13:28;;;;;;;;;1.00;1.00;;;;;19.72;15.18;99115.00;5003804;28;8837;-48
2021/05/08 10:15:54;;;;;;;;;1.00;1.00;;;;;19.75;15.09;99113.53;5004395;28;8804;-48
2021/05/08 10:18:20;;;;;;;;;2.00;2.00;;;;;19.75;15.08;99108.06;4997555;28;9896;-47
2021/05/08 10:20:47;;;;;;;;;1.00;1.00;;;;;19.78;14.76;99107.38;5000341;28;8850;-48
2021/05/08 10:23:14;;;;;;;;;1.80;1.80;;;;;19.81;14.79;99110.22;5002351;28;8800;-48
2021/05/08 10:25:41;;;;;;;;;1.00;1.00;;;;;19.78;15.00;99110.09;5000965;28;9582;-48
2021/05/08 10:28:08;;;;;;;;;1.00;1.00;;;;;19.81;14.92;99095.75;5001959;28;8814;-48
2021/05/08 10:30:34;;;;;;;;;1.00;1.00;;;;;19.80;14.74;99094.13;5003119;28;8800;-49
2021/05/08 10:33:05;;;;;;;;;1.00;1.00;;;;;19.80;14.78;99100.41;5000122;28;8830;-47
2021/05/08 10:35:52;;;;;;;;;1.00;1.00;;;;;19.85;14.94;99099.38;5005344;28;8776;-48
2021/05/08 10:38:23;;;;;;;;;1.00;1.00;;;;;19.84;14.70;99095.84;4994157;28;8896;-48
2021/05/08 10:40:49;;;;;;;;;1.00;1.00;;;;;19.86;14.78;99099.03;4981613;28;8779;-48
2021/05/08 10:43:37;;;;;;;;;1.00;1.00;;;;;19.89;14.69;99108.50;4977931;28;8913;-48
2021/05/08 10:46:02;;;;;;;;;1.00;1.00;;;;;19.87;14.54;99088.88;4980566;28;8837;-48
2021/05/08 10:48:27;;;;;;;;;1.00;1.00;;;;;19.91;14.47;99092.56;5003764;28;8989;-48
2021/05/08 10:50:59;;;;;;;;;1.00;1.00;;;;;19.92;14.59;99101.56;4989396;28;8798;-48
2021/05/08 10:53:44;;;;;;;;;1.00;1.00;;;;;19.91;14.33;99087.06;4984402;28;8857;-45
2021/05/08 10:56:31;;;;;;;;;1.00;1.00;;;;;19.93;14.45;99095.75;4978484;28;8803;-48
2021/05/08 10:59:05;;;;;;;;;1.00;1.00;;;;;19.94;14.63;99096.53;4986803;28;8866;-49
2021/05/08 11:01:44;;;;;;;;;1.00;1.00;;;;;19.93;14.49;99093.00;5002274;28;8764;-48
2021/05/08 11:04:10;;;;;;;;;1.00;1.00;;;;;19.95;14.29;99085.25;5002400;28;8815;-48
2021/05/08 11:06:36;;;;;;;;;1.00;1.00;;;;;19.94;14.38;99089.09;5000252;28;8936;-48
2021/05/08 11:09:03;;;;;;;;;1.40;1.40;;;;;19.98;14.38;99089.22;5002659;28;9856;-45
2021/05/08 11:11:49;;;;;;;;;1.00;1.00;;;;;20.01;14.22;99094.00;5002881;28;8786;-49
2021/05/08 11:14:16;;;;;;;;;1.00;1.00;;;;;20.04;14.18;99093.31;5002494;28;8799;-47
2021/05/08 11:16:58;;;;;;;;;1.00;1.00;;;;;20.02;14.34;99096.41;5003234;28;8830;-48
2021/05/08 11:19:25;;;;;;;;;1.00;1.00;;;;;20.00;14.29;99093.22;5004668;28;8756;-48
2021/05/08 11:22:04;;;;;;;;;1.00;1.00;;;;;19.99;14.45;99093.56;5001667;28;8816;-48
2021/05/08 11:24:35;;;;;;;;;2.00;2.00;;;;;20.01;14.34;99088.53;4991227;28;9586;-48
2021/05/08 11:27:00;;;;;;;;;1.00;1.00;;;;;20.01;14.44;99078.38;4994877;28;9560;-49
2021/05/08 11:29:30;;;;;;;;;1.00;1.00;;;;;20.01;14.45;99089.31;5001247;28;8776;-48
2021/05/08 11:31:58;;;;;;;;;1.20;1.20;;;;;20.04;14.32;99083.16;5004472;28;8756;-47
2021/05/08 11:34:25;;;;;;;;;1.00;1.00;;;;;20.04;14.28;99079.63;5005215;28;8776;-49
2021/05/08 11:37:12;;;;;;;;;1.00;1.00;;;;;20.07;14.21;99083.63;5005857;28;8784;-49
2021/05/08 11:39:43;;;;;;;;;1.00;1.00;;;;;20.10;14.38;99080.19;4995403;28;8828;-49
2021/05/08 11:42:27;;;;;;;;;1.00;1.00;;;;;20.12;14.28;99083.38;5005265;28;8850;-48
2021/05/08 11:44:54;;;;;;;;;1.00;1.00;;;;;20.13;14.21;99084.97;5001207;28;8919;-48